| time (UTC) | temp C | wind direction | speed KPH | gust KPH | rain 1hr cm | rain 24hr cm | rain mn cm | humidity % | barometer mb |
| 20260504174727 | 13 | 14 | 0.0 | 1.6 | 0.00 | 0.74 | 0.00 | 96 | |
| 20260504173225 | 14 | 40 | 0.0 | 1.6 | 0.00 | 0.74 | 0.00 | 96 | |
| 20260504171724 | 15 | 329 | 0.0 | 4.8 | 0.00 | 0.74 | 0.00 | 96 | |
| 20260504170222 | 15 | 318 | 0.0 | 1.6 | 0.00 | 0.74 | 0.00 | 96 | |
| 20260504160219 | 16 | 337 | 0.0 | 0.0 | 0.00 | 0.74 | 0.00 | 95 | |
| 20260504150215 | 16 | 288 | 0.0 | 1.6 | 0.00 | 0.74 | 0.00 | 94 | |
| 20260504140209 | 17 | 212 | 0.0 | 3.2 | 0.03 | 0.74 | 0.00 | 92 | |
| 20260504130202 | 17 | 235 | 1.6 | 8.0 | 0.00 | 0.71 | 0.71 | 89 | |
| 20260504120156 | 17 | 190 | 0.0 | 3.2 | 0.00 | 0.71 | 0.71 | 86 | |
| 20260504110151 | 18 | 72 | 3.2 | 8.0 | 0.00 | 0.71 | 0.71 | 82 | |
| 20260504100150 | 19 | 50 | 3.2 | 8.0 | 0.00 | 0.71 | 0.71 | 83 | |
| 20260504081648 | 18 | 60 | 1.6 | 3.2 | 0.00 | 0.71 | 0.71 | 88 | |
| 20260504080148 | 18 | 37 | 1.6 | 4.8 | 0.00 | 0.71 | 0.71 | 88 | |
| 20260504070142 | 19 | 22 | 3.2 | 8.0 | 0.00 | 0.71 | 0.71 | 86 | |
| 20260504060142 | 20 | 45 | 6.4 | 12.9 | 0.00 | 0.71 | 0.71 | 84 | |
| 20260504050135 | 20 | 27 | 6.4 | 14.5 | 0.00 | 0.71 | 0.71 | 83 | |
| 20260504044636 | 19 | 24 | 6.4 | 14.5 | 0.00 | 0.71 | 0.71 | 85 | |
| 20260504043135 | 19 | 33 | 6.4 | 17.7 | 0.00 | 0.71 | 0.71 | 86 | |
| 20260504041633 | 18 | 44 | 8.0 | 17.7 | 0.00 | 0.71 | 0.71 | 86 | |
| 20260504040129 | 18 | 40 | 8.0 | 14.5 | 0.00 | 0.71 | 0.71 | 86 | |
| 20260504034630 | 18 | 33 | 8.0 | 14.5 | 0.00 | 0.71 | 0.71 | 87 | |
| 20260504033129 | 18 | 37 | 8.0 | 14.5 | 0.00 | 0.71 | 0.71 | 88 | |
| 20260504031629 | 18 | 49 | 6.4 | 12.9 | 0.00 | 0.71 | 0.71 | 91 | |
| 20260504030129 | 17 | 17 | 4.8 | 11.3 | 0.05 | 0.71 | 0.71 | 93 | |
| 20260504024630 | 17 | 11 | 4.8 | 11.3 | 0.15 | 0.71 | 0.71 | 94 | |
| 20260504023128 | 17 | 62 | 4.8 | 11.3 | 0.15 | 0.71 | 0.71 | 95 | |
| 20260504021626 | 17 | 48 | 4.8 | 8.0 | 0.20 | 0.71 | 0.71 | 95 | |
| 20260504020125 | 16 | 64 | 3.2 | 8.0 | 0.18 | 0.66 | 0.66 | 96 | |
| 20260504014625 | 16 | 87 | 4.8 | 9.7 | 0.20 | 0.58 | 0.58 | 96 | |
| 20260504013126 | 16 | 78 | 3.2 | 6.4 | 0.33 | 0.56 | 0.56 | 96 | |
| 20260504011625 | 16 | 89 | 3.2 | 6.4 | 0.30 | 0.51 | 0.51 | 95 | |
| 20260504010126 | 16 | 48 | 3.2 | 9.7 | 0.28 | 0.48 | 0.48 | 95 | |
| 20260504004626 | 16 | 38 | 1.6 | 9.7 | 0.23 | 0.38 | 0.41 | 95 | |
| 20260504003123 | 16 | 337 | 0.0 | 1.6 | 0.10 | 0.23 | 0.23 | 95 | |
| 20260504001624 | 16 | 323 | 0.0 | 1.6 | 0.08 | 0.23 | 0.23 | 95 | |
| 20260504000123 | 16 | 315 | 0.0 | 1.6 | 0.10 | 0.20 | 0.20 | 96 | |
| 20260503234621 | 16 | 315 | 0.0 | 1.6 | 0.13 | 0.15 | 0.15 | 96 | |
| 20260503233123 | 16 | 315 | 0.0 | 1.6 | 0.13 | 0.15 | 0.15 | 96 | |
| 20260503231620 | 15 | 128 | 1.6 | 4.8 | 0.13 | 0.15 | 0.15 | 96 | |
| 20260503230120 | 15 | 171 | 1.6 | 3.2 | 0.08 | 0.10 | 0.10 | 95 | |
| 20260503224619 | 15 | 273 | 1.6 | 3.2 | 0.03 | 0.05 | 0.05 | 96 | |
| 20260503223120 | 15 | 321 | 1.6 | 4.8 | 0.00 | 0.03 | 0.03 | 96 | |
| 20260503221618 | 15 | 26 | 0.0 | 4.8 | 0.00 | 0.03 | 0.03 | 96 | |
| 20260503220117 | 15 | 65 | 1.6 | 4.8 | 0.00 | 0.03 | 0.03 | 97 | |
| 20260503214617 | 15 | 52 | 0.0 | 3.2 | 0.00 | 0.03 | 0.03 | 97 | |
| 20260503213117 | 15 | 39 | 0.0 | 1.6 | 0.00 | 0.03 | 0.03 | 97 | |
| 20260503211617 | 15 | 39 | 0.0 | 3.2 | 0.00 | 0.03 | 0.03 | 97 | |
| 20260503210117 | 14 | 52 | 0.0 | 3.2 | 0.03 | 0.03 | 0.03 | 97 | |
| 20260503204617 | 14 | 347 | 0.0 | 0.0 | 0.03 | 0.03 | 0.03 | 97 | |
| 20260503203118 | 14 | 242 | 0.0 | 0.0 | 0.03 | 0.03 | 0.03 | 97 | |
| 20260503201617 | 14 | 242 | 0.0 | 3.2 | 0.03 | 0.03 | 0.03 | 97 | |
| 20260503200117 | 14 | 281 | 0.0 | 0.0 | 0.00 | 0.00 | 0.00 | 96 | |
| 20260503194617 | 13 | 281 | 0.0 | 0.0 | 0.00 | 0.00 | 0.00 | 96 | |
| 20260503193117 | 13 | 281 | 0.0 | 0.0 | 0.00 | 0.00 | 0.00 | 96 | |
| 20260503191618 | 13 | 281 | 0.0 | 0.0 | 0.00 | 0.00 | 0.00 | 96 | |
| 20260503190117 | 13 | 281 | 0.0 | 0.0 | 0.00 | 0.00 | 0.00 | 96 | |
| 20260503184618 | 13 | 281 | 0.0 | 0.0 | 0.00 | 0.00 | 0.00 | 96 | |
| 20260503183117 | 13 | 281 | 0.0 | 0.0 | 0.00 | 0.00 | 0.00 | 96 | |
| 20260503181607 | 13 | 281 | 0.0 | 6.4 | 0.00 | 0.00 | 0.00 | 96 | |
| 20260503180106 | 13 | 281 | 0.0 | 6.4 | 0.00 | 0.00 | 0.00 | 96 |